sensor_id;sensor_type;location;lat;lon;timestamp;temperature;humidity
1594;DHT22;790;47.000;16.084;2023-03-29T00:01:12;1.40;99.90
1594;DHT22;790;47.000;16.084;2023-03-29T00:03:42;1.40;99.90
1594;DHT22;790;47.000;16.084;2023-03-29T00:06:18;1.40;99.90
1594;DHT22;790;47.000;16.084;2023-03-29T00:08:51;1.40;99.90
1594;DHT22;790;47.000;16.084;2023-03-29T00:11:20;1.30;99.90
1594;DHT22;790;47.000;16.084;2023-03-29T00:13:49;1.20;99.90
1594;DHT22;790;47.000;16.084;2023-03-29T00:16:20;1.00;99.90
1594;DHT22;790;47.000;16.084;2023-03-29T00:18:51;0.90;99.90
1594;DHT22;790;47.000;16.084;2023-03-29T00:21:25;0.70;99.90
1594;DHT22;790;47.000;16.084;2023-03-29T00:23:56;0.80;99.90
1594;DHT22;790;47.000;16.084;2023-03-29T00:26:27;0.80;99.90
1594;DHT22;790;47.000;16.084;2023-03-29T00:29:01;0.80;99.90
1594;DHT22;790;47.000;16.084;2023-03-29T00:31:29;0.80;99.90
1594;DHT22;790;47.000;16.084;2023-03-29T00:34:03;0.90;99.90
1594;DHT22;790;47.000;16.084;2023-03-29T00:36:35;0.90;99.90
1594;DHT22;790;47.000;16.084;2023-03-29T00:39:11;1.00;99.90
1594;DHT22;790;47.000;16.084;2023-03-29T00:41:39;1.10;99.90
1594;DHT22;790;47.000;16.084;2023-03-29T00:47:34;1.10;99.90
1594;DHT22;790;47.000;16.084;2023-03-29T00:50:08;1.10;99.90
1594;DHT22;790;47.000;16.084;2023-03-29T00:52:52;1.10;99.90
1594;DHT22;790;47.000;16.084;2023-03-29T00:55:47;1.20;99.90
1594;DHT22;790;47.000;16.084;2023-03-29T00:58:25;1.20;99.90
1594;DHT22;790;47.000;16.084;2023-03-29T01:01:14;1.20;99.90
1594;DHT22;790;47.000;16.084;2023-03-29T01:04:08;1.10;99.90
1594;DHT22;790;47.000;16.084;2023-03-29T01:06:51;1.10;99.90
1594;DHT22;790;47.000;16.084;2023-03-29T01:09:35;1.00;99.90
1594;DHT22;790;47.000;16.084;2023-03-29T01:12:14;1.00;99.90
1594;DHT22;790;47.000;16.084;2023-03-29T01:14:55;1.10;99.90
1594;DHT22;790;47.000;16.084;2023-03-29T01:17:41;1.10;99.90
1594;DHT22;790;47.000;16.084;2023-03-29T01:20:22;1.10;99.90
1594;DHT22;790;47.000;16.084;2023-03-29T01:23:12;1.10;99.90
1594;DHT22;790;47.000;16.084;2023-03-29T01:25:48;1.20;99.90
1594;DHT22;790;47.000;16.084;2023-03-29T01:28:36;1.20;99.90
1594;DHT22;790;47.000;16.084;2023-03-29T01:31:08;1.20;99.90
1594;DHT22;790;47.000;16.084;2023-03-29T01:33:41;1.10;99.90
1594;DHT22;790;47.000;16.084;2023-03-29T01:36:15;1.00;99.90
1594;DHT22;790;47.000;16.084;2023-03-29T01:38:52;1.00;99.90
1594;DHT22;790;47.000;16.084;2023-03-29T01:41:38;1.10;99.90
1594;DHT22;790;47.000;16.084;2023-03-29T01:44:17;1.20;99.90
1594;DHT22;790;47.000;16.084;2023-03-29T01:46:52;1.20;99.90
1594;DHT22;790;47.000;16.084;2023-03-29T01:49:29;1.20;99.90
1594;DHT22;790;47.000;16.084;2023-03-29T01:52:06;1.20;99.90
1594;DHT22;790;47.000;16.084;2023-03-29T01:54:48;1.20;99.90
1594;DHT22;790;47.000;16.084;2023-03-29T01:57:22;1.10;99.90
1594;DHT22;790;47.000;16.084;2023-03-29T01:59:54;1.10;99.90
1594;DHT22;790;47.000;16.084;2023-03-29T02:02:28;1.10;99.90
1594;DHT22;790;47.000;16.084;2023-03-29T02:04:58;1.00;99.90
1594;DHT22;790;47.000;16.084;2023-03-29T02:07:34;1.00;99.90
1594;DHT22;790;47.000;16.084;2023-03-29T02:10:07;0.90;99.90
1594;DHT22;790;47.000;16.084;2023-03-29T02:15:37;1.00;99.90
1594;DHT22;790;47.000;16.084;2023-03-29T02:18:10;1.00;99.90
1594;DHT22;790;47.000;16.084;2023-03-29T02:20:44;1.10;99.90
1594;DHT22;790;47.000;16.084;2023-03-29T02:23:16;1.00;99.90
1594;DHT22;790;47.000;16.084;2023-03-29T02:26:03;1.00;99.90
1594;DHT22;790;47.000;16.084;2023-03-29T02:28:39;1.00;99.90
1594;DHT22;790;47.000;16.084;2023-03-29T02:31:33;1.00;99.90
1594;DHT22;790;47.000;16.084;2023-03-29T02:34:19;1.00;99.90
1594;DHT22;790;47.000;16.084;2023-03-29T02:36:51;0.90;99.90
1594;DHT22;790;47.000;16.084;2023-03-29T02:39:25;1.00;99.90
1594;DHT22;790;47.000;16.084;2023-03-29T02:42:01;0.90;99.90
1594;DHT22;790;47.000;16.084;2023-03-29T02:44:38;1.00;99.90
1594;DHT22;790;47.000;16.084;2023-03-29T02:47:22;1.00;99.90
1594;DHT22;790;47.000;16.084;2023-03-29T02:49:53;1.00;99.90
1594;DHT22;790;47.000;16.084;2023-03-29T02:52:31;0.90;99.90
1594;DHT22;790;47.000;16.084;2023-03-29T02:55:14;0.90;99.90
1594;DHT22;790;47.000;16.084;2023-03-29T02:57:50;1.00;99.90
1594;DHT22;790;47.000;16.084;2023-03-29T03:00:39;1.00;99.90
1594;DHT22;790;47.000;16.084;2023-03-29T03:03:27;1.00;99.90
1594;DHT22;790;47.000;16.084;2023-03-29T03:05:56;1.00;99.90
1594;DHT22;790;47.000;16.084;2023-03-29T03:08:26;1.00;99.90
1594;DHT22;790;47.000;16.084;2023-03-29T03:10:56;1.20;99.90
1594;DHT22;790;47.000;16.084;2023-03-29T03:13:27;1.20;99.90
1594;DHT22;790;47.000;16.084;2023-03-29T03:15:58;1.20;99.90
1594;DHT22;790;47.000;16.084;2023-03-29T03:18:31;1.20;99.90
1594;DHT22;790;47.000;16.084;2023-03-29T03:21:02;1.30;99.90
1594;DHT22;790;47.000;16.084;2023-03-29T03:23:34;1.40;99.90
1594;DHT22;790;47.000;16.084;2023-03-29T03:26:03;1.40;99.90
1594;DHT22;790;47.000;16.084;2023-03-29T03:28:33;1.50;99.90
1594;DHT22;790;47.000;16.084;2023-03-29T03:31:02;1.50;99.90
1594;DHT22;790;47.000;16.084;2023-03-29T03:33:32;1.50;99.90
1594;DHT22;790;47.000;16.084;2023-03-29T03:36:02;1.50;99.90
1594;DHT22;790;47.000;16.084;2023-03-29T03:38:35;1.40;99.90
1594;DHT22;790;47.000;16.084;2023-03-29T03:41:05;1.50;99.90
1594;DHT22;790;47.000;16.084;2023-03-29T03:43:35;1.50;99.90
1594;DHT22;790;47.000;16.084;2023-03-29T03:46:08;1.40;99.90
1594;DHT22;790;47.000;16.084;2023-03-29T03:48:37;1.40;99.90
1594;DHT22;790;47.000;16.084;2023-03-29T03:51:06;1.40;99.90
1594;DHT22;790;47.000;16.084;2023-03-29T03:53:34;1.40;99.90
1594;DHT22;790;47.000;16.084;2023-03-29T03:56:06;1.40;99.90
1594;DHT22;790;47.000;16.084;2023-03-29T03:58:34;1.30;99.90
1594;DHT22;790;47.000;16.084;2023-03-29T04:01:07;1.40;99.90
1594;DHT22;790;47.000;16.084;2023-03-29T04:03:42;1.40;99.90
1594;DHT22;790;47.000;16.084;2023-03-29T04:06:15;1.50;99.90
1594;DHT22;790;47.000;16.084;2023-03-29T04:08:44;1.50;99.90
1594;DHT22;790;47.000;16.084;2023-03-29T04:11:15;1.60;99.90
1594;DHT22;790;47.000;16.084;2023-03-29T04:13:45;1.60;99.90
1594;DHT22;790;47.000;16.084;2023-03-29T04:16:13;1.60;99.90
1594;DHT22;790;47.000;16.084;2023-03-29T04:18:43;1.60;99.90
1594;DHT22;790;47.000;16.084;2023-03-29T04:21:11;1.70;99.90
1594;DHT22;790;47.000;16.084;2023-03-29T04:23:41;1.70;99.90
1594;DHT22;790;47.000;16.084;2023-03-29T04:26:12;1.70;99.90
1594;DHT22;790;47.000;16.084;2023-03-29T04:28:44;1.70;99.90
1594;DHT22;790;47.000;16.084;2023-03-29T04:31:14;1.80;99.90
1594;DHT22;790;47.000;16.084;2023-03-29T04:33:44;1.80;99.90
1594;DHT22;790;47.000;16.084;2023-03-29T04:36:13;1.90;99.90
1594;DHT22;790;47.000;16.084;2023-03-29T04:38:42;1.90;99.90
1594;DHT22;790;47.000;16.084;2023-03-29T04:41:09;1.80;99.90
1594;DHT22;790;47.000;16.084;2023-03-29T04:43:38;1.80;99.90
1594;DHT22;790;47.000;16.084;2023-03-29T04:46:06;1.80;99.90
1594;DHT22;790;47.000;16.084;2023-03-29T04:48:34;1.80;99.90
1594;DHT22;790;47.000;16.084;2023-03-29T04:51:08;1.90;99.90
1594;DHT22;790;47.000;16.084;2023-03-29T04:53:38;2.00;99.90
1594;DHT22;790;47.000;16.084;2023-03-29T04:56:06;2.00;99.90
1594;DHT22;790;47.000;16.084;2023-03-29T04:58:38;1.90;99.90
1594;DHT22;790;47.000;16.084;2023-03-29T05:01:10;1.90;99.90
1594;DHT22;790;47.000;16.084;2023-03-29T05:03:38;1.90;99.90
1594;DHT22;790;47.000;16.084;2023-03-29T05:06:09;1.90;99.90
1594;DHT22;790;47.000;16.084;2023-03-29T05:08:38;1.80;99.90
1594;DHT22;790;47.000;16.084;2023-03-29T05:11:06;1.80;99.90
1594;DHT22;790;47.000;16.084;2023-03-29T05:13:33;1.80;99.90
1594;DHT22;790;47.000;16.084;2023-03-29T05:16:01;1.90;99.90
1594;DHT22;790;47.000;16.084;2023-03-29T05:18:28;1.90;99.90
1594;DHT22;790;47.000;16.084;2023-03-29T05:20:56;1.90;99.90
1594;DHT22;790;47.000;16.084;2023-03-29T05:23:25;1.90;99.90
1594;DHT22;790;47.000;16.084;2023-03-29T05:25:53;1.90;99.90
1594;DHT22;790;47.000;16.084;2023-03-29T05:28:20;2.00;99.90
1594;DHT22;790;47.000;16.084;2023-03-29T05:30:57;2.00;99.90
1594;DHT22;790;47.000;16.084;2023-03-29T05:33:25;2.00;99.90
1594;DHT22;790;47.000;16.084;2023-03-29T05:35:58;2.00;99.90
1594;DHT22;790;47.000;16.084;2023-03-29T05:38:26;2.00;99.90
1594;DHT22;790;47.000;16.084;2023-03-29T05:40:54;2.10;99.90
1594;DHT22;790;47.000;16.084;2023-03-29T05:43:22;2.20;99.90
1594;DHT22;790;47.000;16.084;2023-03-29T05:45:51;2.30;99.90
1594;DHT22;790;47.000;16.084;2023-03-29T05:48:18;2.30;99.90
1594;DHT22;790;47.000;16.084;2023-03-29T05:50:47;2.30;99.90
1594;DHT22;790;47.000;16.084;2023-03-29T05:53:14;2.30;99.90
1594;DHT22;790;47.000;16.084;2023-03-29T05:55:43;2.30;99.90
1594;DHT22;790;47.000;16.084;2023-03-29T05:58:11;2.30;99.90
1594;DHT22;790;47.000;16.084;2023-03-29T06:00:39;2.20;99.90
1594;DHT22;790;47.000;16.084;2023-03-29T06:03:07;2.30;99.90
1594;DHT22;790;47.000;16.084;2023-03-29T06:05:34;2.30;99.90
1594;DHT22;790;47.000;16.084;2023-03-29T06:08:02;2.40;99.90
1594;DHT22;790;47.000;16.084;2023-03-29T06:10:29;2.30;99.90
1594;DHT22;790;47.000;16.084;2023-03-29T06:12:57;2.40;99.90
1594;DHT22;790;47.000;16.084;2023-03-29T06:15:25;2.50;99.90
1594;DHT22;790;47.000;16.084;2023-03-29T06:17:52;2.50;99.90
1594;DHT22;790;47.000;16.084;2023-03-29T06:20:19;2.50;99.90
1594;DHT22;790;47.000;16.084;2023-03-29T06:22:47;2.60;99.90
1594;DHT22;790;47.000;16.084;2023-03-29T06:25:14;2.70;99.90
1594;DHT22;790;47.000;16.084;2023-03-29T06:27:42;2.80;99.90
1594;DHT22;790;47.000;16.084;2023-03-29T06:30:13;2.90;99.90
1594;DHT22;790;47.000;16.084;2023-03-29T06:32:41;3.00;99.90
1594;DHT22;790;47.000;16.084;2023-03-29T06:35:09;3.10;99.90
1594;DHT22;790;47.000;16.084;2023-03-29T06:37:36;3.20;99.90
1594;DHT22;790;47.000;16.084;2023-03-29T06:40:06;3.30;99.90
1594;DHT22;790;47.000;16.084;2023-03-29T06:42:34;3.30;99.90
1594;DHT22;790;47.000;16.084;2023-03-29T06:45:02;3.30;99.90
1594;DHT22;790;47.000;16.084;2023-03-29T06:47:31;3.40;99.90
1594;DHT22;790;47.000;16.084;2023-03-29T06:49:58;3.40;99.90
1594;DHT22;790;47.000;16.084;2023-03-29T06:52:26;3.50;99.90
1594;DHT22;790;47.000;16.084;2023-03-29T06:54:53;3.60;99.90
1594;DHT22;790;47.000;16.084;2023-03-29T06:57:20;3.70;99.90
1594;DHT22;790;47.000;16.084;2023-03-29T06:59:47;3.70;99.90
1594;DHT22;790;47.000;16.084;2023-03-29T07:02:14;3.80;99.90
1594;DHT22;790;47.000;16.084;2023-03-29T07:04:43;3.90;99.90
1594;DHT22;790;47.000;16.084;2023-03-29T07:07:10;3.90;99.90
1594;DHT22;790;47.000;16.084;2023-03-29T07:09:45;4.00;99.90
1594;DHT22;790;47.000;16.084;2023-03-29T07:12:19;4.00;99.90
1594;DHT22;790;47.000;16.084;2023-03-29T07:14:47;4.10;99.90
1594;DHT22;790;47.000;16.084;2023-03-29T07:17:14;4.10;99.90
1594;DHT22;790;47.000;16.084;2023-03-29T07:19:42;4.10;99.90
1594;DHT22;790;47.000;16.084;2023-03-29T07:22:10;4.20;99.90
1594;DHT22;790;47.000;16.084;2023-03-29T07:24:38;4.20;99.90
1594;DHT22;790;47.000;16.084;2023-03-29T07:27:05;4.30;99.90
1594;DHT22;790;47.000;16.084;2023-03-29T07:29:33;4.30;99.90
1594;DHT22;790;47.000;16.084;2023-03-29T07:32:00;4.40;99.90
1594;DHT22;790;47.000;16.084;2023-03-29T07:34:28;4.40;99.90
1594;DHT22;790;47.000;16.084;2023-03-29T07:36:59;4.50;99.90
1594;DHT22;790;47.000;16.084;2023-03-29T07:39:26;4.50;99.90
1594;DHT22;790;47.000;16.084;2023-03-29T07:41:56;4.60;99.90
1594;DHT22;790;47.000;16.084;2023-03-29T07:44:23;4.60;99.90
1594;DHT22;790;47.000;16.084;2023-03-29T07:46:51;4.60;99.90
1594;DHT22;790;47.000;16.084;2023-03-29T07:49:18;4.60;99.90
1594;DHT22;790;47.000;16.084;2023-03-29T07:51:46;4.70;99.90
1594;DHT22;790;47.000;16.084;2023-03-29T07:54:16;4.80;99.90
1594;DHT22;790;47.000;16.084;2023-03-29T07:56:43;4.80;99.90
1594;DHT22;790;47.000;16.084;2023-03-29T07:59:10;4.90;99.90
1594;DHT22;790;47.000;16.084;2023-03-29T08:01:39;5.00;99.90
1594;DHT22;790;47.000;16.084;2023-03-29T08:04:06;5.00;99.90
1594;DHT22;790;47.000;16.084;2023-03-29T08:06:34;5.10;99.90
1594;DHT22;790;47.000;16.084;2023-03-29T08:09:01;5.10;99.90
1594;DHT22;790;47.000;16.084;2023-03-29T08:11:29;5.20;99.90
1594;DHT22;790;47.000;16.084;2023-03-29T08:13:57;5.30;99.90
1594;DHT22;790;47.000;16.084;2023-03-29T08:16:24;5.30;99.90
1594;DHT22;790;47.000;16.084;2023-03-29T08:18:51;5.40;99.90
1594;DHT22;790;47.000;16.084;2023-03-29T08:21:18;5.60;99.90
1594;DHT22;790;47.000;16.084;2023-03-29T08:23:46;5.60;99.90
1594;DHT22;790;47.000;16.084;2023-03-29T08:26:13;5.70;99.90
1594;DHT22;790;47.000;16.084;2023-03-29T08:28:42;5.80;99.90
1594;DHT22;790;47.000;16.084;2023-03-29T08:31:09;5.80;99.90
1594;DHT22;790;47.000;16.084;2023-03-29T08:33:37;5.90;99.90
1594;DHT22;790;47.000;16.084;2023-03-29T08:36:04;6.00;99.90
1594;DHT22;790;47.000;16.084;2023-03-29T08:38:32;6.10;99.90
1594;DHT22;790;47.000;16.084;2023-03-29T08:40:59;6.10;99.90
1594;DHT22;790;47.000;16.084;2023-03-29T08:46:38;6.30;99.90
1594;DHT22;790;47.000;16.084;2023-03-29T08:49:08;6.30;99.90
1594;DHT22;790;47.000;16.084;2023-03-29T08:51:40;6.50;99.90
1594;DHT22;790;47.000;16.084;2023-03-29T08:54:12;6.50;99.90
1594;DHT22;790;47.000;16.084;2023-03-29T08:56:41;6.60;99.90
1594;DHT22;790;47.000;16.084;2023-03-29T08:59:17;6.80;99.90
1594;DHT22;790;47.000;16.084;2023-03-29T09:01:47;6.90;99.90
1594;DHT22;790;47.000;16.084;2023-03-29T09:04:16;7.00;99.70
1594;DHT22;790;47.000;16.084;2023-03-29T09:06:47;7.10;99.90
1594;DHT22;790;47.000;16.084;2023-03-29T09:09:17;7.20;98.30
1594;DHT22;790;47.000;16.084;2023-03-29T09:11:54;7.20;99.20
1594;DHT22;790;47.000;16.084;2023-03-29T09:14:56;7.30;99.80
1594;DHT22;790;47.000;16.084;2023-03-29T09:17:41;7.40;99.40
1594;DHT22;790;47.000;16.084;2023-03-29T09:20:22;7.50;99.90
1594;DHT22;790;47.000;16.084;2023-03-29T09:23:01;7.70;99.50
1594;DHT22;790;47.000;16.084;2023-03-29T09:25:40;7.80;99.10
1594;DHT22;790;47.000;16.084;2023-03-29T09:28:13;7.90;99.20
1594;DHT22;790;47.000;16.084;2023-03-29T09:30:41;7.90;99.60
1594;DHT22;790;47.000;16.084;2023-03-29T09:33:12;8.00;98.70
1594;DHT22;790;47.000;16.084;2023-03-29T09:35:44;8.00;97.90
1594;DHT22;790;47.000;16.084;2023-03-29T09:38:16;8.10;97.70
1594;DHT22;790;47.000;16.084;2023-03-29T09:40:45;8.10;95.60
1594;DHT22;790;47.000;16.084;2023-03-29T09:43:15;8.20;96.30
1594;DHT22;790;47.000;16.084;2023-03-29T09:45:50;8.30;96.10
1594;DHT22;790;47.000;16.084;2023-03-29T09:48:20;8.10;94.90
1594;DHT22;790;47.000;16.084;2023-03-29T09:50:49;8.20;96.20
1594;DHT22;790;47.000;16.084;2023-03-29T09:53:17;8.20;96.70
1594;DHT22;790;47.000;16.084;2023-03-29T09:55:48;8.20;96.30
1594;DHT22;790;47.000;16.084;2023-03-29T09:58:17;8.20;96.60
1594;DHT22;790;47.000;16.084;2023-03-29T10:00:46;8.30;95.00
1594;DHT22;790;47.000;16.084;2023-03-29T10:03:19;8.20;95.20
1594;DHT22;790;47.000;16.084;2023-03-29T10:05:49;8.30;97.10
1594;DHT22;790;47.000;16.084;2023-03-29T10:08:20;8.30;96.30
1594;DHT22;790;47.000;16.084;2023-03-29T10:10:48;8.30;95.80
1594;DHT22;790;47.000;16.084;2023-03-29T10:13:19;8.40;94.20
1594;DHT22;790;47.000;16.084;2023-03-29T10:15:57;8.30;93.50
1594;DHT22;790;47.000;16.084;2023-03-29T10:18:26;8.40;94.50
1594;DHT22;790;47.000;16.084;2023-03-29T10:20:57;8.40;94.50
1594;DHT22;790;47.000;16.084;2023-03-29T10:23:30;8.30;95.40
1594;DHT22;790;47.000;16.084;2023-03-29T10:25:57;8.30;94.00
1594;DHT22;790;47.000;16.084;2023-03-29T10:28:26;8.30;94.20
1594;DHT22;790;47.000;16.084;2023-03-29T10:30:57;8.40;94.40
1594;DHT22;790;47.000;16.084;2023-03-29T10:33:30;8.40;93.70
1594;DHT22;790;47.000;16.084;2023-03-29T10:35:59;8.40;95.00
1594;DHT22;790;47.000;16.084;2023-03-29T10:38:29;8.40;95.70
1594;DHT22;790;47.000;16.084;2023-03-29T10:41:03;8.50;94.60
1594;DHT22;790;47.000;16.084;2023-03-29T10:43:37;8.50;94.40
1594;DHT22;790;47.000;16.084;2023-03-29T10:46:06;8.50;94.60
1594;DHT22;790;47.000;16.084;2023-03-29T10:48:36;8.60;94.60
1594;DHT22;790;47.000;16.084;2023-03-29T10:51:05;8.50;94.40
1594;DHT22;790;47.000;16.084;2023-03-29T10:53:34;8.50;94.20
1594;DHT22;790;47.000;16.084;2023-03-29T10:56:24;8.50;94.20
1594;DHT22;790;47.000;16.084;2023-03-29T10:59:19;8.40;95.90
1594;DHT22;790;47.000;16.084;2023-03-29T11:02:15;8.30;94.80
1594;DHT22;790;47.000;16.084;2023-03-29T11:04:53;8.30;94.30
1594;DHT22;790;47.000;16.084;2023-03-29T11:07:29;8.50;96.20
1594;DHT22;790;47.000;16.084;2023-03-29T11:10:22;8.50;94.90
1594;DHT22;790;47.000;16.084;2023-03-29T11:12:55;8.50;94.50
1594;DHT22;790;47.000;16.084;2023-03-29T11:15:37;8.50;96.10
1594;DHT22;790;47.000;16.084;2023-03-29T11:18:26;8.60;96.90
1594;DHT22;790;47.000;16.084;2023-03-29T11:21:11;8.70;96.90
1594;DHT22;790;47.000;16.084;2023-03-29T11:23:48;8.90;95.80
1594;DHT22;790;47.000;16.084;2023-03-29T11:26:20;9.00;96.20
1594;DHT22;790;47.000;16.084;2023-03-29T11:28:53;9.20;97.30
1594;DHT22;790;47.000;16.084;2023-03-29T11:31:29;9.40;96.30
1594;DHT22;790;47.000;16.084;2023-03-29T11:34:11;9.60;96.10
1594;DHT22;790;47.000;16.084;2023-03-29T11:36:49;9.70;95.70
1594;DHT22;790;47.000;16.084;2023-03-29T11:39:27;9.70;96.00
1594;DHT22;790;47.000;16.084;2023-03-29T11:42:03;9.80;96.30
1594;DHT22;790;47.000;16.084;2023-03-29T11:44:34;9.80;95.50
1594;DHT22;790;47.000;16.084;2023-03-29T11:47:07;9.90;93.90
1594;DHT22;790;47.000;16.084;2023-03-29T11:49:39;9.80;93.70
1594;DHT22;790;47.000;16.084;2023-03-29T11:52:15;9.80;93.90
1594;DHT22;790;47.000;16.084;2023-03-29T11:54:47;9.80;93.20
1594;DHT22;790;47.000;16.084;2023-03-29T11:57:20;9.70;94.90
1594;DHT22;790;47.000;16.084;2023-03-29T11:59:53;9.60;94.00
1594;DHT22;790;47.000;16.084;2023-03-29T12:02:28;9.50;94.30
1594;DHT22;790;47.000;16.084;2023-03-29T12:05:01;9.60;94.00
1594;DHT22;790;47.000;16.084;2023-03-29T12:07:35;9.50;93.50
1594;DHT22;790;47.000;16.084;2023-03-29T12:10:13;9.50;93.10
1594;DHT22;790;47.000;16.084;2023-03-29T12:12:45;9.40;93.50
1594;DHT22;790;47.000;16.084;2023-03-29T12:15:16;9.50;93.00
1594;DHT22;790;47.000;16.084;2023-03-29T12:17:50;9.50;93.10
1594;DHT22;790;47.000;16.084;2023-03-29T12:20:20;9.40;92.90
1594;DHT22;790;47.000;16.084;2023-03-29T12:22:53;9.30;92.90
1594;DHT22;790;47.000;16.084;2023-03-29T12:25:23;9.40;94.20
1594;DHT22;790;47.000;16.084;2023-03-29T12:28:11;9.50;94.70
1594;DHT22;790;47.000;16.084;2023-03-29T12:30:56;9.60;93.70
1594;DHT22;790;47.000;16.084;2023-03-29T12:36:43;9.70;94.70
1594;DHT22;790;47.000;16.084;2023-03-29T12:39:18;9.80;93.90
1594;DHT22;790;47.000;16.084;2023-03-29T12:41:47;9.80;93.20
1594;DHT22;790;47.000;16.084;2023-03-29T12:44:19;9.80;93.70
1594;DHT22;790;47.000;16.084;2023-03-29T12:46:50;9.80;93.50
1594;DHT22;790;47.000;16.084;2023-03-29T12:49:25;9.80;93.70
1594;DHT22;790;47.000;16.084;2023-03-29T12:51:54;9.70;95.20
1594;DHT22;790;47.000;16.084;2023-03-29T12:54:27;9.80;94.30
1594;DHT22;790;47.000;16.084;2023-03-29T12:56:56;9.90;94.40
1594;DHT22;790;47.000;16.084;2023-03-29T12:59:34;9.90;93.80
1594;DHT22;790;47.000;16.084;2023-03-29T13:02:31;9.90;93.90
1594;DHT22;790;47.000;16.084;2023-03-29T13:05:00;9.90;93.00
1594;DHT22;790;47.000;16.084;2023-03-29T13:07:32;10.00;92.90
1594;DHT22;790;47.000;16.084;2023-03-29T13:10:35;10.00;93.50
1594;DHT22;790;47.000;16.084;2023-03-29T13:13:10;10.10;93.00
1594;DHT22;790;47.000;16.084;2023-03-29T13:15:42;10.20;93.00
1594;DHT22;790;47.000;16.084;2023-03-29T13:18:21;10.20;92.50
1594;DHT22;790;47.000;16.084;2023-03-29T13:20:57;10.20;91.70
1594;DHT22;790;47.000;16.084;2023-03-29T13:23:34;10.10;91.10
1594;DHT22;790;47.000;16.084;2023-03-29T13:26:20;10.00;90.90
1594;DHT22;790;47.000;16.084;2023-03-29T13:29:05;10.00;91.70
1594;DHT22;790;47.000;16.084;2023-03-29T13:31:42;10.20;92.30
1594;DHT22;790;47.000;16.084;2023-03-29T13:34:23;10.20;91.00
1594;DHT22;790;47.000;16.084;2023-03-29T13:37:01;10.20;91.90
1594;DHT22;790;47.000;16.084;2023-03-29T13:39:33;10.20;92.60
1594;DHT22;790;47.000;16.084;2023-03-29T13:42:20;10.20;92.20
1594;DHT22;790;47.000;16.084;2023-03-29T13:44:49;10.20;92.60
1594;DHT22;790;47.000;16.084;2023-03-29T13:47:38;10.20;92.50
1594;DHT22;790;47.000;16.084;2023-03-29T13:50:14;10.20;92.60
1594;DHT22;790;47.000;16.084;2023-03-29T13:52:49;10.30;92.10
1594;DHT22;790;47.000;16.084;2023-03-29T13:55:20;10.40;92.00
1594;DHT22;790;47.000;16.084;2023-03-29T13:57:55;10.40;92.00
1594;DHT22;790;47.000;16.084;2023-03-29T14:00:30;10.50;92.20
1594;DHT22;790;47.000;16.084;2023-03-29T14:03:04;10.50;92.20
1594;DHT22;790;47.000;16.084;2023-03-29T14:05:36;10.50;92.90
1594;DHT22;790;47.000;16.084;2023-03-29T14:08:07;10.50;92.90
1594;DHT22;790;47.000;16.084;2023-03-29T14:10:39;10.60;91.40
1594;DHT22;790;47.000;16.084;2023-03-29T14:13:11;10.70;90.00
1594;DHT22;790;47.000;16.084;2023-03-29T14:15:43;10.70;91.40
1594;DHT22;790;47.000;16.084;2023-03-29T14:18:14;10.70;91.20
1594;DHT22;790;47.000;16.084;2023-03-29T14:20:43;10.70;91.00
1594;DHT22;790;47.000;16.084;2023-03-29T14:23:11;10.70;91.80
1594;DHT22;790;47.000;16.084;2023-03-29T14:25:43;10.80;91.30
1594;DHT22;790;47.000;16.084;2023-03-29T14:28:23;10.70;88.00
1594;DHT22;790;47.000;16.084;2023-03-29T14:30:50;10.70;89.90
1594;DHT22;790;47.000;16.084;2023-03-29T14:33:26;10.60;89.80
1594;DHT22;790;47.000;16.084;2023-03-29T14:35:54;10.50;88.10
1594;DHT22;790;47.000;16.084;2023-03-29T14:38:21;10.60;88.40
1594;DHT22;790;47.000;16.084;2023-03-29T14:40:49;10.70;90.10
1594;DHT22;790;47.000;16.084;2023-03-29T14:43:18;10.70;90.80
1594;DHT22;790;47.000;16.084;2023-03-29T14:45:49;10.80;91.10
1594;DHT22;790;47.000;16.084;2023-03-29T14:48:17;10.80;92.30
1594;DHT22;790;47.000;16.084;2023-03-29T14:50:45;10.80;90.30
1594;DHT22;790;47.000;16.084;2023-03-29T14:53:17;10.80;90.00
1594;DHT22;790;47.000;16.084;2023-03-29T14:55:47;10.90;91.50
1594;DHT22;790;47.000;16.084;2023-03-29T14:58:19;10.90;90.70
1594;DHT22;790;47.000;16.084;2023-03-29T15:00:49;10.80;90.50
1594;DHT22;790;47.000;16.084;2023-03-29T15:03:17;10.90;89.40
1594;DHT22;790;47.000;16.084;2023-03-29T15:05:49;10.80;90.60
1594;DHT22;790;47.000;16.084;2023-03-29T15:08:28;10.80;91.30
1594;DHT22;790;47.000;16.084;2023-03-29T15:10:55;10.90;91.30
1594;DHT22;790;47.000;16.084;2023-03-29T15:13:23;10.90;90.50
1594;DHT22;790;47.000;16.084;2023-03-29T15:15:56;10.80;90.90
1594;DHT22;790;47.000;16.084;2023-03-29T15:18:27;10.80;92.10
1594;DHT22;790;47.000;16.084;2023-03-29T15:20:55;10.80;91.90
1594;DHT22;790;47.000;16.084;2023-03-29T15:23:23;10.80;92.60
1594;DHT22;790;47.000;16.084;2023-03-29T15:25:54;10.70;92.80
1594;DHT22;790;47.000;16.084;2023-03-29T15:28:25;10.80;91.50
1594;DHT22;790;47.000;16.084;2023-03-29T15:30:59;10.70;91.70
1594;DHT22;790;47.000;16.084;2023-03-29T15:33:32;10.60;90.90
1594;DHT22;790;47.000;16.084;2023-03-29T15:36:01;10.60;91.30
1594;DHT22;790;47.000;16.084;2023-03-29T15:38:29;10.60;91.20
1594;DHT22;790;47.000;16.084;2023-03-29T15:40:57;10.70;90.60
1594;DHT22;790;47.000;16.084;2023-03-29T15:43:24;10.60;91.00
1594;DHT22;790;47.000;16.084;2023-03-29T15:45:52;10.60;91.50
1594;DHT22;790;47.000;16.084;2023-03-29T15:48:22;10.60;91.20
1594;DHT22;790;47.000;16.084;2023-03-29T15:50:50;10.70;91.60
1594;DHT22;790;47.000;16.084;2023-03-29T15:53:17;10.70;92.00
1594;DHT22;790;47.000;16.084;2023-03-29T15:55:48;10.70;91.10
1594;DHT22;790;47.000;16.084;2023-03-29T15:58:18;10.70;92.00
1594;DHT22;790;47.000;16.084;2023-03-29T16:00:50;10.70;92.60
1594;DHT22;790;47.000;16.084;2023-03-29T16:03:20;10.60;91.80
1594;DHT22;790;47.000;16.084;2023-03-29T16:05:49;10.60;91.70
1594;DHT22;790;47.000;16.084;2023-03-29T16:08:18;10.70;91.60
1594;DHT22;790;47.000;16.084;2023-03-29T16:10:46;10.70;90.60
1594;DHT22;790;47.000;16.084;2023-03-29T16:13:14;10.60;91.00
1594;DHT22;790;47.000;16.084;2023-03-29T16:15:41;10.50;91.40
1594;DHT22;790;47.000;16.084;2023-03-29T16:18:08;10.40;91.60
1594;DHT22;790;47.000;16.084;2023-03-29T16:20:37;10.40;91.30
1594;DHT22;790;47.000;16.084;2023-03-29T16:23:04;10.40;91.70
1594;DHT22;790;47.000;16.084;2023-03-29T16:25:35;10.40;92.30
1594;DHT22;790;47.000;16.084;2023-03-29T16:28:05;10.40;91.80
1594;DHT22;790;47.000;16.084;2023-03-29T16:30:33;10.40;92.20
1594;DHT22;790;47.000;16.084;2023-03-29T16:33:00;10.30;92.20
1594;DHT22;790;47.000;16.084;2023-03-29T16:35:32;10.30;92.30
1594;DHT22;790;47.000;16.084;2023-03-29T16:38:01;10.20;92.60
1594;DHT22;790;47.000;16.084;2023-03-29T16:40:28;10.10;94.20
1594;DHT22;790;47.000;16.084;2023-03-29T16:42:56;10.10;94.50
1594;DHT22;790;47.000;16.084;2023-03-29T16:45:23;10.10;94.80
1594;DHT22;790;47.000;16.084;2023-03-29T16:47:51;10.00;96.20
1594;DHT22;790;47.000;16.084;2023-03-29T16:50:19;10.00;95.70
1594;DHT22;790;47.000;16.084;2023-03-29T16:52:47;9.90;95.40
1594;DHT22;790;47.000;16.084;2023-03-29T16:55:18;9.90;96.70
1594;DHT22;790;47.000;16.084;2023-03-29T16:57:45;9.80;96.80
1594;DHT22;790;47.000;16.084;2023-03-29T17:00:14;9.80;96.50